Time;durP1;ratioP1;P1;durP2;ratioP2;P2;SDS_P1;SDS_P2;PMS_P1;PMS_P2;Temp;Humidity;BMP_temperature;BMP_pressure;BME280_temperature;BME280_humidity;BME280_pressure;Samples;Min_cycle;Max_cycle;Signal;HPM_P1;HPM_P2
2023/01/13 00:02:15;;;;;;;1.10;0.98;;;;;;;2.68;51.95;92687.59;5011445;28;20026;-78
2023/01/13 00:04:41;;;;;;;1.08;0.98;;;;;;;2.64;52.87;92679.50;5009679;28;20046;-77
2023/01/13 00:07:07;;;;;;;1.58;0.98;;;;;;;2.54;52.33;92666.41;5010736;28;20072;-77
2023/01/13 00:09:32;;;;;;;1.13;0.90;;;;;;;2.56;52.81;92681.69;5009430;28;20026;-78
2023/01/13 00:11:58;;;;;;;1.50;1.10;;;;;;;2.53;52.93;92676.97;5010913;28;20053;-78
2023/01/13 00:14:25;;;;;;;1.50;1.00;;;;;;;2.52;52.99;92671.00;5028832;28;20045;-77
2023/01/13 00:16:51;;;;;;;4.47;1.20;;;;;;;2.51;53.25;92666.88;5010625;28;20525;-78
2023/01/13 00:19:16;;;;;;;1.38;0.90;;;;;;;2.49;53.22;92655.97;5010590;28;20045;-78
2023/01/13 00:21:42;;;;;;;1.10;0.80;;;;;;;2.50;52.91;92654.97;5010657;28;20499;-77
2023/01/13 00:24:09;;;;;;;1.20;0.90;;;;;;;2.48;53.22;92650.03;5021263;28;20032;-77
2023/01/13 00:26:35;;;;;;;1.30;0.90;;;;;;;2.46;53.39;92652.06;5029177;28;20499;-77
2023/01/13 00:29:01;;;;;;;1.92;1.25;;;;;;;2.43;53.40;92649.94;5027436;28;20529;-77
2023/01/13 00:31:28;;;;;;;0.82;0.73;;;;;;;2.37;53.42;92637.94;5030448;28;20029;-78
2023/01/13 00:34:00;;;;;;;0.82;0.82;;;;;;;2.40;52.97;92645.22;5030156;28;20119;-78
2023/01/13 00:36:26;;;;;;;0.82;0.80;;;;;;;2.45;52.35;92639.38;5030184;28;20665;-78
2023/01/13 00:38:52;;;;;;;0.88;0.88;;;;;;;2.48;51.42;92636.34;5030115;28;20124;-77
2023/01/13 00:41:20;;;;;;;1.42;1.00;;;;;;;2.52;52.08;92640.00;5030278;28;20116;-77
2023/01/13 00:43:46;;;;;;;0.98;0.90;;;;;;;2.52;52.75;92637.41;5030185;28;20132;-77
2023/01/13 00:46:14;;;;;;;1.10;1.00;;;;;;;2.52;53.01;92631.47;5029927;28;20036;-78
2023/01/13 00:48:39;;;;;;;1.00;0.90;;;;;;;2.49;53.21;92628.31;5028298;28;20053;-77
2023/01/13 00:51:13;;;;;;;1.33;1.02;;;;;;;2.47;52.91;92625.19;5030253;28;20037;-76
2023/01/13 00:53:44;;;;;;;0.77;0.70;;;;;;;2.52;52.14;92621.91;5028864;28;20061;-77
2023/01/13 00:56:16;;;;;;;1.20;1.00;;;;;;;2.54;51.64;92614.72;5030038;28;20064;-76
2023/01/13 00:58:43;;;;;;;4.10;1.30;;;;;;;2.50;51.78;92604.06;5028576;28;20045;-77
2023/01/13 01:01:12;;;;;;;1.70;1.00;;;;;;;2.51;52.87;92617.78;5011723;28;20049;-77
2023/01/13 01:03:39;;;;;;;1.35;1.10;;;;;;;2.51;52.96;92617.78;5013799;28;20070;-78
2023/01/13 01:06:08;;;;;;;1.40;1.00;;;;;;;2.48;53.07;92603.53;5024736;28;20048;-76
2023/01/13 01:08:34;;;;;;;1.08;0.90;;;;;;;2.46;53.60;92599.59;5033506;28;20548;-77
2023/01/13 01:11:05;;;;;;;1.27;1.00;;;;;;;2.40;53.88;92598.72;5033435;28;20038;-76
2023/01/13 01:13:31;;;;;;;1.55;1.02;;;;;;;2.36;53.33;92602.00;5033313;28;20051;-77
2023/01/13 01:15:57;;;;;;;1.15;1.02;;;;;;;2.33;53.31;92607.66;5015143;28;20037;-77
2023/01/13 01:18:22;;;;;;;1.33;1.10;;;;;;;2.29;52.89;92608.09;5031788;28;20037;-76
2023/01/13 01:20:48;;;;;;;2.17;1.02;;;;;;;2.27;52.63;92610.16;5031770;28;20049;-77
2023/01/13 01:23:14;;;;;;;1.40;1.10;;;;;;;2.24;53.04;92608.00;5031981;28;20091;-77
2023/01/13 01:25:39;;;;;;;2.15;1.15;;;;;;;2.21;53.34;92602.53;5033030;28;20527;-76
2023/01/13 01:28:05;;;;;;;3.67;1.20;;;;;;;2.17;53.51;92602.22;5031592;28;20408;-77
2023/01/13 01:30:31;;;;;;;1.17;0.90;;;;;;;2.15;53.38;92599.06;5020921;28;20072;-76
2023/01/13 01:32:56;;;;;;;1.17;1.00;;;;;;;2.10;53.16;92606.72;4995654;28;20037;-77
2023/01/13 01:35:23;;;;;;;1.35;0.90;;;;;;;2.08;53.45;92619.88;5012176;28;20088;-77
2023/01/13 01:37:49;;;;;;;1.10;0.90;;;;;;;2.07;52.62;92622.66;5027204;28;20482;-77
2023/01/13 01:40:14;;;;;;;0.80;0.80;;;;;;;2.07;52.59;92614.91;5031934;28;20057;-77
2023/01/13 01:45:26;;;;;;;1.92;0.82;;;;;;;2.06;52.79;92621.13;5032797;28;20065;-77
2023/01/13 01:48:00;;;;;;;1.52;1.00;;;;;;;1.98;53.20;92613.72;5031967;28;20037;-77
2023/01/13 01:50:28;;;;;;;1.20;1.00;;;;;;;1.98;53.27;92619.69;5032887;28;20038;-77
2023/01/13 01:53:06;;;;;;;2.35;0.93;;;;;;;1.94;53.10;92602.31;5033362;28;20444;-78
2023/01/13 01:55:35;;;;;;;1.30;1.00;;;;;;;1.94;52.94;92613.41;5032298;28;20029;-77
2023/01/13 01:58:48;;;;;;;1.48;1.02;;;;;;;1.92;53.33;92605.13;5031281;28;20033;-77
2023/01/13 02:01:14;;;;;;;1.77;1.10;;;;;;;1.90;53.29;92603.78;5009042;28;20045;-78
2023/01/13 02:03:43;;;;;;;2.17;1.00;;;;;;;1.86;53.12;92596.47;5031442;28;20124;-78
2023/01/13 02:06:10;;;;;;;2.75;1.20;;;;;;;1.88;53.18;92597.03;5022513;28;20045;-77
2023/01/13 02:08:39;;;;;;;1.85;1.10;;;;;;;1.88;52.94;92594.44;5032260;28;20041;-77
2023/01/13 02:11:04;;;;;;;1.92;1.10;;;;;;;1.91;53.32;92602.75;5031794;28;20656;-77
2023/01/13 02:13:30;;;;;;;1.33;1.10;;;;;;;1.93;54.70;92603.31;5031056;28;20056;-77
2023/01/13 02:16:07;;;;;;;1.70;1.10;;;;;;;1.95;54.93;92593.53;5032017;28;20037;-77
2023/01/13 02:19:11;;;;;;;2.47;1.40;;;;;;;2.00;55.29;92596.22;5030750;28;20407;-77
2023/01/13 02:21:55;;;;;;;4.50;1.20;;;;;;;2.04;55.12;92589.56;5030598;28;20041;-78
2023/01/13 02:24:55;;;;;;;1.30;1.00;;;;;;;2.10;55.06;92580.91;5032110;28;20491;-77
2023/01/13 02:27:42;;;;;;;1.85;1.10;;;;;;;2.13;55.25;92588.19;5012270;28;20084;-77
2023/01/13 02:33:40;;;;;;;1.75;1.08;;;;;;;2.13;54.00;92590.75;5026764;28;20116;-77
2023/01/13 02:36:12;;;;;;;4.30;0.80;;;;;;;2.13;53.99;92590.00;5020874;28;20033;-77
2023/01/13 02:39:17;;;;;;;1.13;1.00;;;;;;;2.13;53.80;92585.59;5011921;28;20481;-78
2023/01/13 02:45:03;;;;;;;1.70;1.00;;;;;;;2.13;53.05;92590.75;5012092;28;20554;-78
2023/01/13 02:47:33;;;;;;;1.00;0.80;;;;;;;2.12;52.84;92591.78;5028521;28;20064;-77
2023/01/13 02:50:02;;;;;;;1.30;0.95;;;;;;;2.11;52.84;92587.63;5030263;28;20037;-78
2023/01/13 02:52:43;;;;;;;1.13;0.90;;;;;;;2.09;52.80;92584.50;5031486;28;20037;-78
2023/01/13 02:55:15;;;;;;;1.05;0.80;;;;;;;2.08;53.46;92588.88;5031524;28;20060;-77
2023/01/13 02:57:42;;;;;;;;;;;;;;;2.09;53.29;92592.25;5031600;28;20025;-77
2023/01/13 03:00:10;;;;;;;1.65;1.00;;;;;;;2.07;53.64;92602.00;5031638;28;19916;-77
2023/01/13 03:02:37;;;;;;;1.48;1.10;;;;;;;1.99;53.99;92602.41;5019013;28;20096;-77
2023/01/13 03:05:04;;;;;;;1.67;1.00;;;;;;;1.94;53.76;92594.56;5010366;28;20092;-77
2023/01/13 03:08:00;;;;;;;1.15;0.88;;;;;;;1.88;54.53;92594.44;5020453;28;20113;-77
2023/01/13 03:11:15;;;;;;;1.30;0.90;;;;;;;1.85;54.89;92584.59;5011538;28;20184;-77
2023/01/13 03:13:52;;;;;;;2.25;1.10;;;;;;;1.81;55.03;92580.91;5009078;28;20046;-77
2023/01/13 03:16:39;;;;;;;1.92;0.90;;;;;;;1.76;55.06;92577.44;5011611;28;20049;-77
2023/01/13 03:19:35;;;;;;;1.30;0.98;;;;;;;1.73;54.64;92581.25;5030611;28;20057;-77
2023/01/13 03:22:10;;;;;;;1.58;1.10;;;;;;;1.71;54.75;92572.94;5031034;28;20043;-77
2023/01/13 03:24:41;;;;;;;1.58;1.02;;;;;;;1.66;55.05;92571.06;5030396;28;20377;-78
2023/01/13 03:27:14;;;;;;;1.58;1.05;;;;;;;1.64;54.98;92573.13;5030898;28;20091;-77
2023/01/13 03:29:53;;;;;;;1.33;1.00;;;;;;;1.61;54.71;92568.38;5029370;28;20095;-78
2023/01/13 03:32:28;;;;;;;1.55;1.00;;;;;;;1.60;55.14;92563.44;5029344;28;20545;-77
2023/01/13 03:34:59;;;;;;;1.38;1.02;;;;;;;1.61;54.85;92562.44;5029422;28;20051;-78
2023/01/13 03:37:32;;;;;;;1.55;1.00;;;;;;;1.58;55.03;92558.53;5025587;28;20037;-77
2023/01/13 03:40:02;;;;;;;2.03;1.10;;;;;;;1.56;54.58;92554.63;5013015;28;20029;-78
2023/01/13 03:42:32;;;;;;;1.20;1.00;;;;;;;1.58;54.34;92553.38;5030736;28;20415;-77
2023/01/13 03:45:13;;;;;;;1.13;1.02;;;;;;;1.59;54.20;92554.94;5030741;28;20474;-77
2023/01/13 03:47:52;;;;;;;0.75;0.70;;;;;;;1.58;54.51;92544.84;5030301;28;20578;-78
2023/01/13 03:50:24;;;;;;;3.03;1.02;;;;;;;1.55;55.00;92548.66;5030920;28;20234;-77
2023/01/13 03:52:54;;;;;;;1.73;1.00;;;;;;;1.55;55.21;92555.63;5030833;28;20021;-78
2023/01/13 03:55:32;;;;;;;1.48;1.00;;;;;;;1.57;55.00;92566.50;5030901;28;20041;-77
2023/01/13 03:58:13;;;;;;;1.00;0.80;;;;;;;1.56;55.08;92563.13;5029057;28;20068;-78
2023/01/13 04:00:46;;;;;;;1.35;0.90;;;;;;;1.59;55.42;92567.06;5026336;28;20041;-78
2023/01/13 04:03:22;;;;;;;2.13;1.10;;;;;;;1.59;55.21;92565.25;5030720;28;20084;-78
2023/01/13 04:05:55;;;;;;;1.95;1.20;;;;;;;1.61;55.75;92568.38;5030701;28;20132;-78
2023/01/13 04:08:23;;;;;;;;;;;;;;;1.59;55.90;92559.31;5027450;28;20096;-78
2023/01/13 04:11:13;;;;;;;1.50;1.13;;;;;;;1.58;55.55;92548.22;5010664;28;19940;-78
2023/01/13 04:13:41;;;;;;;2.33;1.02;;;;;;;1.56;55.61;92555.41;4993349;28;20492;-77
2023/01/13 04:16:07;;;;;;;2.20;1.30;;;;;;;1.58;55.15;92552.59;5010915;28;20554;-77
2023/01/13 04:18:37;;;;;;;1.45;1.00;;;;;;;1.61;55.14;92554.72;5010136;28;20041;-77
2023/01/13 04:21:06;;;;;;;1.58;1.00;;;;;;;1.62;55.60;92564.00;5010497;28;20829;-78
2023/01/13 04:23:32;;;;;;;1.40;1.05;;;;;;;1.63;55.50;92560.44;5010835;28;20026;-77
2023/01/13 04:25:58;;;;;;;2.33;1.20;;;;;;;1.65;55.25;92558.41;5017726;28;20030;-77
2023/01/13 04:28:25;;;;;;;1.10;0.93;;;;;;;1.67;55.24;92558.97;5009370;28;20144;-78
2023/01/13 04:30:51;;;;;;;1.60;1.00;;;;;;;1.70;55.06;92573.97;5018912;28;20084;-78
2023/01/13 04:33:18;;;;;;;1.13;0.90;;;;;;;1.73;55.32;92563.19;5009428;28;20044;-77
2023/01/13 04:35:45;;;;;;;0.77;0.70;;;;;;;1.73;55.51;92536.59;5011716;28;20037;-78
2023/01/13 04:38:15;;;;;;;1.65;0.93;;;;;;;1.71;55.60;92539.41;5014369;28;20109;-77
2023/01/13 04:40:41;;;;;;;1.05;0.90;;;;;;;1.72;55.86;92553.09;5013109;28;20034;-77
2023/01/13 04:43:07;;;;;;;1.58;1.17;;;;;;;1.66;55.88;92549.63;5032849;28;20045;-77
2023/01/13 04:45:33;;;;;;;2.72;1.05;;;;;;;1.70;56.10;92539.66;5032853;28;20395;-77
2023/01/13 04:47:59;;;;;;;2.42;1.15;;;;;;;1.68;56.03;92537.28;5033604;28;20450;-78
2023/01/13 04:50:24;;;;;;;1.00;0.88;;;;;;;1.67;56.24;92551.22;5033133;28;20044;-77
2023/01/13 04:52:52;;;;;;;1.15;1.05;;;;;;;1.64;56.19;92549.06;5034045;28;20029;-77
2023/01/13 04:55:19;;;;;;;4.10;1.00;;;;;;;1.66;56.17;92554.78;5033925;28;20025;-77
2023/01/13 04:57:45;;;;;;;1.33;1.02;;;;;;;1.67;56.04;92557.16;5032261;28;20094;-78
2023/01/13 05:00:13;;;;;;;0.93;0.80;;;;;;;1.68;56.01;92563.09;5032738;28;20037;-77
2023/01/13 05:02:39;;;;;;;1.73;1.08;;;;;;;1.71;55.17;92575.53;5032297;28;20036;-78
2023/01/13 05:05:05;;;;;;;1.30;1.00;;;;;;;1.73;54.83;92578.66;5033757;28;20132;-78
2023/01/13 05:07:31;;;;;;;1.15;0.98;;;;;;;1.73;54.74;92578.66;5033393;28;20025;-78
2023/01/13 05:09:56;;;;;;;1.27;0.95;;;;;;;1.74;54.88;92587.22;5023638;28;20035;-77
2023/01/13 05:17:52;;;;;;;1.20;0.93;;;;;;;1.74;55.48;92589.81;5033061;28;20492;-77
2023/01/13 05:20:18;;;;;;;0.98;0.80;;;;;;;1.75;56.13;92592.13;5033205;28;20033;-77
2023/01/13 05:25:28;;;;;;;1.42;0.90;;;;;;;1.67;56.36;92589.94;5033275;28;20646;-78
2023/01/13 05:27:56;;;;;;;1.38;1.10;;;;;;;1.71;56.05;92593.59;5031947;28;20044;-77
2023/01/13 05:30:25;;;;;;;1.30;0.82;;;;;;;1.71;55.73;92591.00;5030505;28;20072;-77
2023/01/13 05:32:51;;;;;;;1.20;0.90;;;;;;;1.71;55.85;92588.44;5031195;28;20463;-81
2023/01/13 05:35:17;;;;;;;3.05;1.10;;;;;;;1.72;55.98;92590.03;5032705;28;20044;-77
2023/01/13 05:37:43;;;;;;;1.17;1.00;;;;;;;1.72;56.27;92589.25;5015112;28;20033;-77
2023/01/13 05:43:19;;;;;;;0.98;0.80;;;;;;;1.68;55.88;92586.31;5032863;28;20033;-77
2023/01/13 05:45:51;;;;;;;1.10;0.90;;;;;;;1.69;55.50;92581.94;5032719;28;20104;-77
2023/01/13 05:48:19;;;;;;;1.73;0.98;;;;;;;1.68;55.92;92586.31;5030716;28;20048;-77
2023/01/13 05:50:45;;;;;;;0.70;0.70;;;;;;;1.67;55.73;92587.34;5031609;28;20041;-77
2023/01/13 05:53:12;;;;;;;0.90;0.80;;;;;;;1.68;55.45;92586.31;5031364;28;20037;-77
2023/01/13 05:55:41;;;;;;;1.48;1.00;;;;;;;1.67;55.39;92589.94;5029886;28;20112;-77
2023/01/13 05:58:09;;;;;;;1.30;1.00;;;;;;;1.69;55.46;92587.09;5030263;28;20037;-77
2023/01/13 06:00:35;;;;;;;1.05;0.95;;;;;;;1.69;55.50;92581.94;5044124;28;20079;-77
2023/01/13 06:03:01;;;;;;;0.90;0.90;;;;;;;1.70;55.23;92586.88;5029504;28;20492;-78
2023/01/13 06:05:26;;;;;;;1.08;0.95;;;;;;;1.71;55.06;92588.44;5032456;28;20036;-77
2023/01/13 06:07:56;;;;;;;2.33;1.10;;;;;;;1.73;55.07;92594.16;5032257;28;20640;-76
2023/01/13 06:10:22;;;;;;;0.95;0.80;;;;;;;1.76;55.36;92598.09;5032236;28;20076;-78
2023/01/13 06:12:48;;;;;;;1.60;0.95;;;;;;;1.73;55.13;92599.31;5035095;28;20087;-78
2023/01/13 06:15:13;;;;;;;2.00;1.40;;;;;;;1.75;55.19;92599.88;5033583;28;20037;-77
2023/01/13 06:17:39;;;;;;;3.47;2.03;;;;;;;1.77;55.35;92591.91;5030899;28;20042;-79
2023/01/13 06:20:07;;;;;;;2.22;1.30;;;;;;;1.77;55.10;92587.53;5034482;28;20087;-80
2023/01/13 06:22:38;;;;;;;3.22;1.33;;;;;;;1.76;54.87;92580.81;5025309;28;20030;-78
2023/01/13 06:25:29;;;;;;;1.20;1.00;;;;;;;1.81;54.96;92588.63;5022707;28;20490;-77
2023/01/13 06:27:58;;;;;;;1.15;0.90;;;;;;;1.85;55.01;92584.59;5013428;28;20045;-78
2023/01/13 06:30:26;;;;;;;1.65;1.10;;;;;;;1.85;54.79;92586.41;5033483;28;20033;-78
2023/01/13 06:32:57;;;;;;;1.88;1.05;;;;;;;1.89;55.47;92590.06;5015710;28;20506;-78
2023/01/13 06:35:31;;;;;;;1.40;0.90;;;;;;;1.94;55.36;92592.75;5047018;28;20033;-77
2023/01/13 06:37:59;;;;;;;2.10;1.20;;;;;;;2.14;53.34;92581.22;5022306;28;20056;-77
2023/01/13 06:40:25;;;;;;;3.50;1.63;;;;;;;2.17;54.39;92591.88;5015288;28;20579;-78
2023/01/13 06:45:38;;;;;;;3.47;1.45;;;;;;;2.15;56.50;92593.91;5017097;28;20097;-78
2023/01/13 06:48:05;;;;;;;3.45;1.50;;;;;;;2.11;55.83;92597.19;5030610;28;20172;-78
2023/01/13 06:50:31;;;;;;;2.80;1.50;;;;;;;2.06;55.53;92605.63;5037482;28;20060;-78
2023/01/13 06:52:58;;;;;;;0.95;0.90;;;;;;;2.02;55.36;92604.50;5036431;28;20381;-78
2023/01/13 06:55:23;;;;;;;1.20;0.90;;;;;;;2.01;54.81;92602.97;5034964;28;20041;-78
2023/01/13 06:57:54;;;;;;;1.90;0.90;;;;;;;2.02;54.62;92615.63;5036314;28;20053;-78
2023/01/13 07:00:21;;;;;;;1.60;1.00;;;;;;;2.00;54.46;92599.56;5036231;28;20045;-78
2023/01/13 07:02:47;;;;;;;1.42;0.95;;;;;;;1.98;54.56;92598.22;5036771;28;20037;-78
2023/01/13 07:05:12;;;;;;;1.20;1.00;;;;;;;1.97;54.54;92602.63;5038134;28;20121;-78
2023/01/13 07:07:38;;;;;;;1.85;1.40;;;;;;;1.95;54.71;92606.44;5036778;28;20041;-78
2023/01/13 07:10:08;;;;;;;2.08;1.10;;;;;;;1.95;54.79;92609.03;5037016;28;20037;-79
2023/01/13 07:15:17;;;;;;;1.70;1.10;;;;;;;1.93;54.53;92608.47;5039502;28;20034;-79
2023/01/13 07:15:22;;;;;;;1.55;1.15;;;;;;;1.94;54.92;92617.81;5040543;28;20527;-79
2023/01/13 07:17:47;;;;;;;1.48;1.17;;;;;;;1.93;55.00;92611.06;5038440;28;20028;-78
2023/01/13 07:24:07;;;;;;;2.25;1.23;;;;;;;1.96;55.58;92605.41;5038331;28;20067;-78
2023/01/13 07:29:59;;;;;;;4.50;1.40;;;;;;;2.10;56.02;92609.31;5038463;28;20037;-77
2023/01/13 07:32:25;;;;;;;2.15;1.20;;;;;;;2.13;55.79;92614.00;5034101;28;20022;-77
2023/01/13 07:34:50;;;;;;;2.67;1.30;;;;;;;2.19;55.53;92604.56;5034651;28;20065;-77
2023/01/13 07:37:16;;;;;;;2.20;1.30;;;;;;;2.23;54.88;92595.31;5034192;28;20382;-77
2023/01/13 07:39:44;;;;;;;3.20;1.20;;;;;;;2.29;54.61;92596.97;5032699;28;20116;-78
2023/01/13 07:44:53;;;;;;;2.13;1.20;;;;;;;2.44;53.68;92601.63;5034853;28;20419;-77
2023/01/13 07:47:22;;;;;;;1.83;1.30;;;;;;;2.51;53.68;92607.44;5034387;28;20049;-77
2023/01/13 07:49:48;;;;;;;1.83;1.23;;;;;;;2.58;53.80;92602.88;5034669;28;20082;-78
2023/01/13 07:52:13;;;;;;;2.58;1.30;;;;;;;2.60;53.87;92600.84;5034159;28;20386;-78
2023/01/13 07:54:39;;;;;;;1.95;1.20;;;;;;;2.71;53.88;92596.63;5026664;28;20554;-77
2023/01/13 07:57:05;;;;;;;2.70;1.02;;;;;;;2.82;52.86;92613.88;5032025;28;20126;-77
2023/01/13 07:59:30;;;;;;;2.38;1.20;;;;;;;2.90;52.26;92615.28;5023126;28;20095;-77
2023/01/13 08:01:56;;;;;;;2.10;1.30;;;;;;;2.98;52.06;92612.31;5031625;28;20029;-77
2023/01/13 08:04:22;;;;;;;2.33;1.30;;;;;;;3.04;53.64;92606.19;5033514;28;20034;-77
2023/01/13 08:06:48;;;;;;;3.83;1.20;;;;;;;3.16;53.74;92610.50;5032939;28;20044;-78
2023/01/13 08:09:13;;;;;;;1.40;1.10;;;;;;;3.21;54.25;92616.50;5033038;28;20040;-78
2023/01/13 08:11:39;;;;;;;3.22;1.40;;;;;;;3.29;54.52;92612.75;5038570;28;20547;-78
2023/01/13 08:14:05;;;;;;;3.10;1.20;;;;;;;3.37;55.38;92608.97;5037455;28;20049;-77
2023/01/13 08:16:33;;;;;;;2.58;1.27;;;;;;;3.44;55.57;92602.59;5036918;28;20029;-77
2023/01/13 08:18:58;;;;;;;2.60;1.17;;;;;;;3.55;54.61;92611.28;5037363;28;20045;-78
2023/01/13 08:21:24;;;;;;;3.05;1.35;;;;;;;3.60;55.28;92610.56;5018628;28;20559;-78
2023/01/13 08:23:49;;;;;;;2.80;1.27;;;;;;;3.64;54.61;92617.59;5016635;28;20123;-77
2023/01/13 08:26:17;;;;;;;2.20;1.15;;;;;;;3.70;54.45;92623.63;5000053;28;20100;-78
2023/01/13 08:28:43;;;;;;;2.25;1.20;;;;;;;3.77;54.58;92624.25;5017841;28;20049;-78
2023/01/13 08:31:12;;;;;;;2.78;1.42;;;;;;;3.88;54.71;92630.34;5017546;28;20060;-78
2023/01/13 08:33:38;;;;;;;3.50;1.38;;;;;;;4.01;54.08;92634.34;5023298;28;20102;-77
2023/01/13 08:36:07;;;;;;;1.92;1.15;;;;;;;4.15;53.73;92635.56;5031563;28;20079;-78
2023/01/13 08:38:33;;;;;;;2.33;1.20;;;;;;;4.34;53.66;92629.00;5038058;28;20053;-78
2023/01/13 08:40:59;;;;;;;2.20;1.20;;;;;;;4.47;53.67;92624.47;5036615;28;20048;-77
2023/01/13 08:43:25;;;;;;;2.00;1.10;;;;;;;4.59;53.27;92620.72;5037850;28;20041;-78
2023/01/13 08:45:59;;;;;;;3.22;1.52;;;;;;;4.91;48.82;92626.94;5037842;28;20468;-77
2023/01/13 08:48:25;;;;;;;2.88;1.40;;;;;;;5.11;47.24;92629.69;5037536;28;20053;-77
2023/01/13 08:50:52;;;;;;;2.25;1.30;;;;;;;5.17;47.61;92630.50;5037918;28;20041;-77
2023/01/13 08:53:18;;;;;;;2.85;1.30;;;;;;;5.19;49.68;92618.84;5028477;28;20073;-78
2023/01/13 08:55:44;;;;;;;12.13;1.40;;;;;;;5.20;49.63;92625.63;5016978;28;20037;-78
2023/01/13 08:58:09;;;;;;;3.05;1.30;;;;;;;5.39;47.57;92620.00;5018668;28;20041;-78
2023/01/13 09:00:35;;;;;;;2.55;1.33;;;;;;;5.41;47.99;92617.94;5032891;28;20069;-78
2023/01/13 09:03:00;;;;;;;1.83;1.25;;;;;;;5.49;48.98;92614.88;5038724;28;20545;-78
2023/01/13 09:05:26;;;;;;;3.10;1.58;;;;;;;5.57;48.09;92622.19;5039411;28;20069;-78
2023/01/13 09:07:51;;;;;;;1.95;1.08;;;;;;;5.66;48.09;92624.31;5039294;28;20100;-78
2023/01/13 09:10:17;;;;;;;3.22;1.52;;;;;;;5.70;48.99;92617.59;5039129;28;20040;-78
2023/01/13 09:15:35;;;;;;;2.33;1.15;;;;;;;6.08;48.22;92634.69;5041116;28;20061;-78
2023/01/13 09:18:01;;;;;;;2.63;1.35;;;;;;;6.19;47.43;92632.88;5022264;28;20141;-78
2023/01/13 09:20:27;;;;;;;2.78;1.27;;;;;;;6.33;47.82;92628.78;5038808;28;20399;-78
2023/01/13 09:22:52;;;;;;;2.47;1.30;;;;;;;6.60;48.70;92622.59;5020766;28;20030;-78
2023/01/13 09:25:18;;;;;;;4.20;1.70;;;;;;;6.92;47.68;92632.00;5033105;28;20042;-77
2023/01/13 09:27:43;;;;;;;3.22;1.30;;;;;;;7.00;47.41;92634.06;5019840;28;20040;-78
2023/01/13 09:30:09;;;;;;;2.38;1.38;;;;;;;7.03;46.77;92638.78;5022592;28;20122;-78
2023/01/13 09:32:37;;;;;;;2.53;1.30;;;;;;;7.23;47.16;92630.19;5026416;28;20036;-77
2023/01/13 09:35:05;;;;;;;2.58;1.35;;;;;;;7.36;48.33;92636.66;5040074;28;20036;-77
2023/01/13 09:37:36;;;;;;;2.38;1.23;;;;;;;7.43;49.12;92635.38;5050499;28;20100;-78
2023/01/13 09:40:05;;;;;;;3.00;1.60;;;;;;;7.47;47.78;92622.59;5040232;28;20041;-78
2023/01/13 09:45:52;;;;;;;1.70;1.25;;;;;;;7.47;44.66;92615.56;5037145;28;20399;-78
2023/01/13 09:48:25;;;;;;;2.58;1.33;;;;;;;7.63;44.88;92618.13;5036841;28;20108;-78
2023/01/13 09:51:04;;;;;;;3.05;1.67;;;;;;;8.05;45.42;92614.38;5037193;28;20123;-78
2023/01/13 09:53:37;;;;;;;2.72;1.55;;;;;;;8.13;45.63;92619.81;5039315;28;20046;-78
2023/01/13 09:56:04;;;;;;;3.88;1.48;;;;;;;8.32;45.22;92619.22;5039323;28;20527;-78
2023/01/13 09:58:29;;;;;;;3.05;1.67;;;;;;;8.55;45.40;92625.63;5039189;28;20040;-78
2023/01/13 10:01:02;;;;;;;4.13;1.80;;;;;;;8.78;43.97;92613.78;5039412;28;20046;-78
2023/01/13 10:03:33;;;;;;;3.75;1.90;;;;;;;8.84;45.18;92623.09;5039311;28;20112;-77
2023/01/13 10:06:14;;;;;;;4.40;1.60;;;;;;;8.90;45.34;92624.63;5037822;28;20041;-78
2023/01/13 10:08:42;;;;;;;4.88;1.70;;;;;;;8.85;43.79;92616.06;5038143;28;20037;-78
2023/01/13 10:14:00;;;;;;;3.28;1.52;;;;;;;8.73;45.41;92609.34;5039346;28;20363;-78
2023/01/13 10:16:28;;;;;;;2.60;1.40;;;;;;;8.52;44.93;92600.88;5039065;28;20555;-78
2023/01/13 10:19:21;;;;;;;1.77;1.20;;;;;;;8.43;43.84;92597.25;5039417;28;20033;-78
2023/01/13 10:22:06;;;;;;;3.17;1.40;;;;;;;8.64;43.63;92602.38;5039049;28;20038;-77
2023/01/13 10:24:58;;;;;;;2.83;1.30;;;;;;;8.73;40.19;92585.06;5038432;28;20127;-78
2023/01/13 10:27:38;;;;;;;2.92;1.38;;;;;;;9.38;40.76;92596.03;5039254;28;20522;-78
2023/01/13 10:30:20;;;;;;;2.45;1.30;;;;;;;10.03;37.60;92588.84;5038236;28;20071;-79
2023/01/13 10:32:56;;;;;;;1.00;0.90;;;;;;;10.72;35.94;92594.56;5038258;28;20060;-78
2023/01/13 10:35:53;;;;;;;1.75;1.20;;;;;;;10.81;35.96;92587.59;5039720;28;20038;-78
2023/01/13 10:38:35;;;;;;;2.42;1.33;;;;;;;11.55;33.79;92584.31;5029763;28;20053;-78
2023/01/13 10:41:04;;;;;;;1.75;1.25;;;;;;;11.39;33.65;92581.97;5037932;28;20033;-78
2023/01/13 10:43:30;;;;;;;2.05;1.17;;;;;;;11.57;33.32;92577.75;5038849;28;20040;-78
2023/01/13 10:45:59;;;;;;;2.50;1.30;;;;;;;11.55;36.23;92579.88;5039936;28;20049;-79
2023/01/13 10:49:02;;;;;;;2.05;1.08;;;;;;;10.49;35.37;92581.25;5035898;28;20462;-78
2023/01/13 10:51:36;;;;;;;2.33;1.40;;;;;;;10.31;36.12;92577.56;5033438;28;20114;-78
2023/01/13 10:54:18;;;;;;;3.13;1.50;;;;;;;10.62;37.98;92575.28;5039448;28;20041;-78
2023/01/13 10:56:44;;;;;;;3.53;1.50;;;;;;;11.05;36.74;92563.91;5039456;28;20068;-78
2023/01/13 10:59:17;;;;;;;3.50;1.52;;;;;;;11.70;35.11;92576.19;5042566;28;20037;-78
2023/01/13 11:01:53;;;;;;;3.67;1.63;;;;;;;11.80;35.60;92575.25;5029697;28;20452;-78
2023/01/13 11:04:34;;;;;;;1.90;1.27;;;;;;;11.87;34.37;92565.94;5029929;28;20038;-78
2023/01/13 11:07:02;;;;;;;3.90;1.67;;;;;;;12.08;33.80;92568.94;5022299;28;20116;-78
2023/01/13 11:09:29;;;;;;;3.80;1.50;;;;;;;12.61;34.79;92567.59;5019385;28;20030;-78
2023/01/13 11:11:56;;;;;;;2.53;1.35;;;;;;;12.50;34.33;92558.38;5035268;28;20128;-79
2023/01/13 11:14:40;;;;;;;2.78;1.30;;;;;;;12.63;35.43;92554.16;5038281;28;20124;-79
2023/01/13 11:17:14;;;;;;;4.05;1.60;;;;;;;12.81;34.46;92552.44;5035529;28;20030;-81
2023/01/13 11:19:46;;;;;;;2.58;1.42;;;;;;;11.98;36.59;92542.91;5039885;28;20097;-80
2023/01/13 11:23:00;;;;;;;4.70;1.70;;;;;;;11.18;37.08;92538.81;5039724;28;20043;-80
2023/01/13 11:25:31;;;;;;;4.75;1.50;;;;;;;10.96;40.54;92524.50;5036897;28;20091;-80
2023/01/13 11:28:20;;;;;;;2.17;1.33;;;;;;;10.40;41.86;92520.91;5035758;28;20464;-80
2023/01/13 11:30:53;;;;;;;3.42;1.80;;;;;;;10.24;43.62;92519.50;5036536;28;20103;-79
2023/01/13 11:33:31;;;;;;;3.67;1.75;;;;;;;10.23;43.66;92522.44;5038036;28;20041;-80
2023/01/13 11:36:19;;;;;;;5.57;1.80;;;;;;;10.33;46.52;92520.47;5039476;28;20041;-80
2023/01/13 11:39:09;;;;;;;3.90;1.65;;;;;;;10.38;45.98;92519.63;5038735;28;20029;-79
2023/01/13 11:41:41;;;;;;;5.03;1.92;;;;;;;10.53;48.73;92523.88;5041878;28;20034;-80
2023/01/13 11:44:14;;;;;;;8.38;1.58;;;;;;;10.68;48.34;92521.03;5027942;28;20030;-80
2023/01/13 11:46:40;;;;;;;3.88;1.60;;;;;;;10.53;49.99;92522.00;5019172;28;20117;-80
2023/01/13 11:49:12;;;;;;;4.97;1.83;;;;;;;10.32;53.29;92513.69;5016636;28;20041;-80
2023/01/13 11:51:45;;;;;;;6.03;1.80;;;;;;;10.39;49.67;92516.72;5018046;28;20033;-80
2023/01/13 11:54:45;;;;;;;4.38;1.67;;;;;;;10.18;50.72;92518.81;5018478;28;20034;-79
2023/01/13 11:57:27;;;;;;;3.72;1.63;;;;;;;10.19;54.72;92509.13;5025724;28;20029;-79
2023/01/13 12:00:02;;;;;;;5.47;1.55;;;;;;;10.08;54.82;92513.72;5053598;28;20056;-78
2023/01/13 12:02:57;;;;;;;4.05;1.67;;;;;;;9.93;54.64;92500.81;5037480;28;20061;-78
2023/01/13 12:05:22;;;;;;;4.93;1.98;;;;;;;9.63;58.54;92494.91;5035886;28;20037;-79
2023/01/13 12:08:13;;;;;;;3.63;1.70;;;;;;;9.65;53.37;92486.81;5037712;28;20029;-78
2023/01/13 12:10:47;;;;;;;2.25;1.30;;;;;;;9.84;58.52;92481.59;5039833;28;20539;-79
2023/01/13 12:13:31;;;;;;;6.93;1.95;;;;;;;9.89;59.81;92473.72;5035047;28;20061;-79
2023/01/13 12:16:03;;;;;;;1.73;1.20;;;;;;;9.66;57.82;92475.28;5025238;28;20068;-79
2023/01/13 12:18:58;;;;;;;4.10;1.67;;;;;;;9.63;60.03;92470.63;5015392;28;20454;-79
2023/01/13 12:22:04;;;;;;;2.75;1.38;;;;;;;9.48;58.36;92459.31;5019335;28;20056;-79
2023/01/13 12:24:38;;;;;;;4.57;2.10;;;;;;;9.44;55.67;92462.75;5031644;28;20041;-81
2023/01/13 12:27:09;;;;;;;3.85;2.05;;;;;;;9.36;55.04;92464.13;5017644;28;20468;-79
2023/01/13 12:29:58;;;;;;;4.43;1.63;;;;;;;9.37;58.51;92474.31;5035658;28;20130;-79
2023/01/13 12:32:44;;;;;;;3.90;1.95;;;;;;;9.71;57.41;92468.16;5035851;28;20065;-79
2023/01/13 12:35:37;;;;;;;4.22;1.83;;;;;;;10.26;55.41;92461.69;5035700;28;20029;-79
2023/01/13 12:38:15;;;;;;;4.70;2.08;;;;;;;10.71;53.88;92456.84;5036143;28;20033;-79
2023/01/13 12:41:02;;;;;;;1.98;1.30;;;;;;;10.57;52.70;92456.81;5034788;28;20024;-79
2023/01/13 12:46:22;;;;;;;8.40;4.35;;;;;;;10.09;49.93;92457.75;5035451;28;20380;-78
2023/01/13 12:48:53;;;;;;;4.10;2.03;;;;;;;9.83;49.43;92464.38;5026904;28;20041;-79